sensor_id;sensor_type;location;lat;lon;timestamp;P1;durP1;ratioP1;P2;durP2;ratioP2
55913;SDS011;58179;48.776;9.124;2023-09-07T00:00:03;3.47;;;2.75;;
55913;SDS011;58179;48.776;9.124;2023-09-07T00:02:35;5.20;;;2.92;;
55913;SDS011;58179;48.776;9.124;2023-09-07T00:05:02;3.40;;;2.90;;
55913;SDS011;58179;48.776;9.124;2023-09-07T00:07:31;6.40;;;2.50;;
55913;SDS011;58179;48.776;9.124;2023-09-07T00:09:57;4.78;;;3.20;;
55913;SDS011;58179;48.776;9.124;2023-09-07T00:12:23;4.57;;;2.90;;
55913;SDS011;58179;48.776;9.124;2023-09-07T00:14:50;4.68;;;3.15;;
55913;SDS011;58179;48.776;9.124;2023-09-07T00:17:18;4.50;;;3.08;;
55913;SDS011;58179;48.776;9.124;2023-09-07T00:19:44;3.87;;;3.10;;
55913;SDS011;58179;48.776;9.124;2023-09-07T00:22:14;5.43;;;3.17;;
55913;SDS011;58179;48.776;9.124;2023-09-07T00:24:41;3.63;;;2.90;;
55913;SDS011;58179;48.776;9.124;2023-09-07T00:27:07;4.15;;;3.38;;
55913;SDS011;58179;48.776;9.124;2023-09-07T00:29:36;4.32;;;3.30;;
55913;SDS011;58179;48.776;9.124;2023-09-07T00:32:03;3.10;;;2.80;;
55913;SDS011;58179;48.776;9.124;2023-09-07T00:34:31;5.18;;;3.35;;
55913;SDS011;58179;48.776;9.124;2023-09-07T00:36:57;3.08;;;2.75;;
55913;SDS011;58179;48.776;9.124;2023-09-07T00:39:25;4.60;;;2.97;;
55913;SDS011;58179;48.776;9.124;2023-09-07T00:41:51;4.60;;;2.80;;
55913;SDS011;58179;48.776;9.124;2023-09-07T00:44:17;2.83;;;2.45;;
55913;SDS011;58179;48.776;9.124;2023-09-07T00:46:43;4.30;;;2.80;;
55913;SDS011;58179;48.776;9.124;2023-09-07T00:49:10;3.70;;;3.00;;
55913;SDS011;58179;48.776;9.124;2023-09-07T00:51:38;3.60;;;2.75;;
55913;SDS011;58179;48.776;9.124;2023-09-07T00:54:05;3.22;;;2.53;;
55913;SDS011;58179;48.776;9.124;2023-09-07T00:56:31;3.33;;;2.83;;
55913;SDS011;58179;48.776;9.124;2023-09-07T00:58:58;4.38;;;3.25;;
55913;SDS011;58179;48.776;9.124;2023-09-07T01:01:25;4.47;;;3.17;;
55913;SDS011;58179;48.776;9.124;2023-09-07T01:03:51;4.68;;;2.67;;
55913;SDS011;58179;48.776;9.124;2023-09-07T01:06:18;3.05;;;2.70;;
55913;SDS011;58179;48.776;9.124;2023-09-07T01:08:54;3.78;;;2.50;;
55913;SDS011;58179;48.776;9.124;2023-09-07T01:11:22;3.15;;;2.85;;
55913;SDS011;58179;48.776;9.124;2023-09-07T01:13:48;7.57;;;3.53;;
55913;SDS011;58179;48.776;9.124;2023-09-07T01:16:16;4.25;;;2.95;;
55913;SDS011;58179;48.776;9.124;2023-09-07T01:18:45;3.53;;;2.80;;
55913;SDS011;58179;48.776;9.124;2023-09-07T01:21:12;4.28;;;2.90;;
55913;SDS011;58179;48.776;9.124;2023-09-07T01:23:41;3.70;;;2.80;;
55913;SDS011;58179;48.776;9.124;2023-09-07T01:26:09;4.85;;;2.75;;
55913;SDS011;58179;48.776;9.124;2023-09-07T01:28:36;3.67;;;3.00;;
55913;SDS011;58179;48.776;9.124;2023-09-07T01:31:03;6.63;;;3.08;;
55913;SDS011;58179;48.776;9.124;2023-09-07T01:33:29;4.88;;;2.97;;
55913;SDS011;58179;48.776;9.124;2023-09-07T01:35:55;4.15;;;3.15;;
55913;SDS011;58179;48.776;9.124;2023-09-07T01:38:22;4.82;;;3.45;;
55913;SDS011;58179;48.776;9.124;2023-09-07T01:40:50;4.57;;;3.20;;
55913;SDS011;58179;48.776;9.124;2023-09-07T01:43:16;5.97;;;3.38;;
55913;SDS011;58179;48.776;9.124;2023-09-07T01:45:42;4.50;;;3.47;;
55913;SDS011;58179;48.776;9.124;2023-09-07T01:48:08;3.80;;;3.00;;
55913;SDS011;58179;48.776;9.124;2023-09-07T01:50:35;4.28;;;3.30;;
55913;SDS011;58179;48.776;9.124;2023-09-07T01:53:01;3.45;;;2.92;;
55913;SDS011;58179;48.776;9.124;2023-09-07T01:55:31;4.85;;;3.45;;
55913;SDS011;58179;48.776;9.124;2023-09-07T01:57:58;4.20;;;3.30;;
55913;SDS011;58179;48.776;9.124;2023-09-07T02:00:26;3.42;;;2.95;;
55913;SDS011;58179;48.776;9.124;2023-09-07T02:02:52;4.13;;;3.20;;
55913;SDS011;58179;48.776;9.124;2023-09-07T02:05:18;3.60;;;2.75;;
55913;SDS011;58179;48.776;9.124;2023-09-07T02:07:46;3.97;;;2.88;;
55913;SDS011;58179;48.776;9.124;2023-09-07T02:10:14;3.95;;;3.40;;
55913;SDS011;58179;48.776;9.124;2023-09-07T02:12:41;4.88;;;3.40;;
55913;SDS011;58179;48.776;9.124;2023-09-07T02:15:09;5.90;;;3.42;;
55913;SDS011;58179;48.776;9.124;2023-09-07T02:17:35;4.10;;;3.15;;
55913;SDS011;58179;48.776;9.124;2023-09-07T02:20:03;5.57;;;3.38;;
55913;SDS011;58179;48.776;9.124;2023-09-07T02:22:35;5.25;;;3.58;;
55913;SDS011;58179;48.776;9.124;2023-09-07T02:25:02;6.43;;;3.35;;
55913;SDS011;58179;48.776;9.124;2023-09-07T02:27:30;4.27;;;3.50;;
55913;SDS011;58179;48.776;9.124;2023-09-07T02:29:57;5.00;;;3.40;;
55913;SDS011;58179;48.776;9.124;2023-09-07T02:32:24;5.60;;;3.93;;
55913;SDS011;58179;48.776;9.124;2023-09-07T02:34:50;5.80;;;3.58;;
55913;SDS011;58179;48.776;9.124;2023-09-07T02:37:17;3.95;;;3.28;;
55913;SDS011;58179;48.776;9.124;2023-09-07T02:39:43;5.55;;;3.83;;
55913;SDS011;58179;48.776;9.124;2023-09-07T02:42:09;4.40;;;3.23;;
55913;SDS011;58179;48.776;9.124;2023-09-07T02:44:35;4.30;;;3.33;;
55913;SDS011;58179;48.776;9.124;2023-09-07T02:47:03;5.18;;;3.47;;
55913;SDS011;58179;48.776;9.124;2023-09-07T02:49:33;4.50;;;3.35;;
55913;SDS011;58179;48.776;9.124;2023-09-07T02:51:59;4.97;;;3.72;;
55913;SDS011;58179;48.776;9.124;2023-09-07T02:54:25;5.03;;;3.60;;
55913;SDS011;58179;48.776;9.124;2023-09-07T02:56:52;4.38;;;3.60;;
55913;SDS011;58179;48.776;9.124;2023-09-07T02:59:18;4.90;;;3.35;;
55913;SDS011;58179;48.776;9.124;2023-09-07T03:01:45;6.40;;;3.83;;
55913;SDS011;58179;48.776;9.124;2023-09-07T03:04:11;4.30;;;3.70;;
55913;SDS011;58179;48.776;9.124;2023-09-07T03:06:38;5.18;;;3.67;;
55913;SDS011;58179;48.776;9.124;2023-09-07T03:09:05;4.05;;;3.30;;
55913;SDS011;58179;48.776;9.124;2023-09-07T03:11:34;10.25;;;3.83;;
55913;SDS011;58179;48.776;9.124;2023-09-07T03:14:01;4.93;;;3.60;;
55913;SDS011;58179;48.776;9.124;2023-09-07T03:16:27;5.07;;;3.58;;
55913;SDS011;58179;48.776;9.124;2023-09-07T03:18:55;3.95;;;3.30;;
55913;SDS011;58179;48.776;9.124;2023-09-07T03:21:21;5.97;;;4.00;;
55913;SDS011;58179;48.776;9.124;2023-09-07T03:23:52;5.40;;;3.77;;
55913;SDS011;58179;48.776;9.124;2023-09-07T03:26:18;4.55;;;3.40;;
55913;SDS011;58179;48.776;9.124;2023-09-07T03:28:44;6.20;;;4.30;;
55913;SDS011;58179;48.776;9.124;2023-09-07T03:31:11;4.20;;;3.50;;
55913;SDS011;58179;48.776;9.124;2023-09-07T03:33:37;4.97;;;3.85;;
55913;SDS011;58179;48.776;9.124;2023-09-07T03:36:03;4.50;;;3.67;;
55913;SDS011;58179;48.776;9.124;2023-09-07T03:38:30;5.60;;;3.65;;
55913;SDS011;58179;48.776;9.124;2023-09-07T03:40:57;5.60;;;3.57;;
55913;SDS011;58179;48.776;9.124;2023-09-07T03:43:23;5.32;;;3.67;;
55913;SDS011;58179;48.776;9.124;2023-09-07T03:45:50;6.50;;;3.87;;
55913;SDS011;58179;48.776;9.124;2023-09-07T03:48:16;6.93;;;3.65;;
55913;SDS011;58179;48.776;9.124;2023-09-07T03:50:42;4.22;;;3.83;;
55913;SDS011;58179;48.776;9.124;2023-09-07T03:53:08;4.93;;;3.22;;
55913;SDS011;58179;48.776;9.124;2023-09-07T03:55:39;5.80;;;3.70;;
55913;SDS011;58179;48.776;9.124;2023-09-07T03:58:08;5.07;;;3.80;;
55913;SDS011;58179;48.776;9.124;2023-09-07T04:00:37;5.32;;;3.58;;
55913;SDS011;58179;48.776;9.124;2023-09-07T04:03:04;5.32;;;3.80;;
55913;SDS011;58179;48.776;9.124;2023-09-07T04:05:30;4.47;;;3.47;;
55913;SDS011;58179;48.776;9.124;2023-09-07T04:07:57;5.25;;;3.65;;
55913;SDS011;58179;48.776;9.124;2023-09-07T04:10:23;4.13;;;3.15;;
55913;SDS011;58179;48.776;9.124;2023-09-07T04:12:49;4.95;;;3.53;;
55913;SDS011;58179;48.776;9.124;2023-09-07T04:15:17;5.22;;;3.92;;
55913;SDS011;58179;48.776;9.124;2023-09-07T04:17:43;5.30;;;3.60;;
55913;SDS011;58179;48.776;9.124;2023-09-07T04:20:09;4.63;;;3.75;;
55913;SDS011;58179;48.776;9.124;2023-09-07T04:22:38;5.30;;;3.88;;
55913;SDS011;58179;48.776;9.124;2023-09-07T04:25:05;5.90;;;4.30;;
55913;SDS011;58179;48.776;9.124;2023-09-07T04:27:32;5.13;;;4.00;;
55913;SDS011;58179;48.776;9.124;2023-09-07T04:29:58;5.00;;;3.70;;
55913;SDS011;58179;48.776;9.124;2023-09-07T04:32:26;5.07;;;3.55;;
55913;SDS011;58179;48.776;9.124;2023-09-07T04:34:53;5.47;;;3.73;;
55913;SDS011;58179;48.776;9.124;2023-09-07T04:37:20;7.13;;;4.50;;
55913;SDS011;58179;48.776;9.124;2023-09-07T04:39:46;4.88;;;3.80;;
55913;SDS011;58179;48.776;9.124;2023-09-07T04:42:14;4.13;;;3.27;;
55913;SDS011;58179;48.776;9.124;2023-09-07T04:44:40;3.80;;;3.30;;
55913;SDS011;58179;48.776;9.124;2023-09-07T04:47:06;6.93;;;4.40;;
55913;SDS011;58179;48.776;9.124;2023-09-07T04:49:34;5.03;;;3.80;;
55913;SDS011;58179;48.776;9.124;2023-09-07T04:52:00;7.68;;;4.38;;
55913;SDS011;58179;48.776;9.124;2023-09-07T04:54:26;5.47;;;3.85;;
55913;SDS011;58179;48.776;9.124;2023-09-07T04:56:53;5.13;;;4.25;;
55913;SDS011;58179;48.776;9.124;2023-09-07T04:59:19;6.85;;;4.53;;
55913;SDS011;58179;48.776;9.124;2023-09-07T05:01:45;5.35;;;4.25;;
55913;SDS011;58179;48.776;9.124;2023-09-07T05:04:11;5.05;;;3.85;;
55913;SDS011;58179;48.776;9.124;2023-09-07T05:06:39;5.20;;;3.92;;
55913;SDS011;58179;48.776;9.124;2023-09-07T05:09:06;9.32;;;4.47;;
55913;SDS011;58179;48.776;9.124;2023-09-07T05:11:33;7.35;;;4.55;;
55913;SDS011;58179;48.776;9.124;2023-09-07T05:14:00;5.88;;;4.53;;
55913;SDS011;58179;48.776;9.124;2023-09-07T05:16:27;7.18;;;4.55;;
55913;SDS011;58179;48.776;9.124;2023-09-07T05:18:53;4.97;;;4.10;;
55913;SDS011;58179;48.776;9.124;2023-09-07T05:21:19;6.95;;;4.53;;
55913;SDS011;58179;48.776;9.124;2023-09-07T05:23:46;5.47;;;4.07;;
55913;SDS011;58179;48.776;9.124;2023-09-07T05:26:13;4.50;;;3.90;;
55913;SDS011;58179;48.776;9.124;2023-09-07T05:28:39;6.53;;;4.55;;
55913;SDS011;58179;48.776;9.124;2023-09-07T05:31:08;5.53;;;4.20;;
55913;SDS011;58179;48.776;9.124;2023-09-07T05:33:35;5.22;;;4.03;;
55913;SDS011;58179;48.776;9.124;2023-09-07T05:36:01;6.13;;;4.30;;
55913;SDS011;58179;48.776;9.124;2023-09-07T05:38:27;5.88;;;4.30;;
55913;SDS011;58179;48.776;9.124;2023-09-07T05:40:55;4.57;;;3.70;;
55913;SDS011;58179;48.776;9.124;2023-09-07T05:43:21;4.72;;;4.00;;
55913;SDS011;58179;48.776;9.124;2023-09-07T05:45:47;7.22;;;4.45;;
55913;SDS011;58179;48.776;9.124;2023-09-07T05:48:13;5.72;;;3.90;;
55913;SDS011;58179;48.776;9.124;2023-09-07T05:50:43;5.78;;;4.50;;
55913;SDS011;58179;48.776;9.124;2023-09-07T05:53:09;4.97;;;3.63;;
55913;SDS011;58179;48.776;9.124;2023-09-07T05:55:35;6.10;;;4.03;;
55913;SDS011;58179;48.776;9.124;2023-09-07T05:58:04;5.50;;;3.97;;
55913;SDS011;58179;48.776;9.124;2023-09-07T06:00:31;5.80;;;4.38;;
55913;SDS011;58179;48.776;9.124;2023-09-07T06:02:58;4.85;;;3.95;;
55913;SDS011;58179;48.776;9.124;2023-09-07T06:05:25;4.63;;;3.75;;
55913;SDS011;58179;48.776;9.124;2023-09-07T06:07:52;4.40;;;3.92;;
55913;SDS011;58179;48.776;9.124;2023-09-07T06:10:18;5.78;;;3.88;;
55913;SDS011;58179;48.776;9.124;2023-09-07T06:12:44;4.13;;;3.25;;
55913;SDS011;58179;48.776;9.124;2023-09-07T06:15:12;5.15;;;3.75;;
55913;SDS011;58179;48.776;9.124;2023-09-07T06:17:38;4.25;;;3.65;;
55913;SDS011;58179;48.776;9.124;2023-09-07T06:20:05;6.97;;;3.75;;
55913;SDS011;58179;48.776;9.124;2023-09-07T06:22:32;4.97;;;3.95;;
55913;SDS011;58179;48.776;9.124;2023-09-07T06:24:58;5.78;;;3.65;;
55913;SDS011;58179;48.776;9.124;2023-09-07T06:27:24;5.15;;;4.00;;
55913;SDS011;58179;48.776;9.124;2023-09-07T06:29:50;4.65;;;3.92;;
55913;SDS011;58179;48.776;9.124;2023-09-07T06:32:18;5.18;;;4.10;;
55913;SDS011;58179;48.776;9.124;2023-09-07T06:34:44;8.07;;;4.75;;
55913;SDS011;58179;48.776;9.124;2023-09-07T06:37:11;6.38;;;4.40;;
55913;SDS011;58179;48.776;9.124;2023-09-07T06:39:37;6.22;;;4.05;;
55913;SDS011;58179;48.776;9.124;2023-09-07T06:42:03;6.82;;;4.45;;
55913;SDS011;58179;48.776;9.124;2023-09-07T06:44:30;5.78;;;4.15;;
55913;SDS011;58179;48.776;9.124;2023-09-07T06:46:58;5.10;;;4.05;;
55913;SDS011;58179;48.776;9.124;2023-09-07T06:49:26;5.63;;;4.43;;
55913;SDS011;58179;48.776;9.124;2023-09-07T06:51:54;7.30;;;4.93;;
55913;SDS011;58179;48.776;9.124;2023-09-07T06:54:21;6.03;;;4.18;;
55913;SDS011;58179;48.776;9.124;2023-09-07T06:56:47;5.43;;;4.20;;
55913;SDS011;58179;48.776;9.124;2023-09-07T06:59:13;10.75;;;5.30;;
55913;SDS011;58179;48.776;9.124;2023-09-07T07:01:39;6.20;;;4.13;;
55913;SDS011;58179;48.776;9.124;2023-09-07T07:04:05;7.13;;;4.30;;
55913;SDS011;58179;48.776;9.124;2023-09-07T07:06:34;5.65;;;4.20;;
55913;SDS011;58179;48.776;9.124;2023-09-07T07:09:01;5.47;;;4.35;;
55913;SDS011;58179;48.776;9.124;2023-09-07T07:11:27;6.78;;;4.97;;
55913;SDS011;58179;48.776;9.124;2023-09-07T07:13:53;6.65;;;5.03;;
55913;SDS011;58179;48.776;9.124;2023-09-07T07:16:19;6.53;;;4.75;;
55913;SDS011;58179;48.776;9.124;2023-09-07T07:18:46;7.65;;;4.00;;
55913;SDS011;58179;48.776;9.124;2023-09-07T07:21:12;5.85;;;4.30;;
55913;SDS011;58179;48.776;9.124;2023-09-07T07:23:39;6.57;;;3.75;;
55913;SDS011;58179;48.776;9.124;2023-09-07T07:26:06;6.53;;;3.78;;
55913;SDS011;58179;48.776;9.124;2023-09-07T07:28:33;4.50;;;3.78;;
55913;SDS011;58179;48.776;9.124;2023-09-07T07:31:06;6.60;;;3.97;;
55913;SDS011;58179;48.776;9.124;2023-09-07T07:33:34;5.03;;;3.70;;
55913;SDS011;58179;48.776;9.124;2023-09-07T07:36:00;5.95;;;3.40;;
55913;SDS011;58179;48.776;9.124;2023-09-07T07:38:27;5.10;;;3.80;;
55913;SDS011;58179;48.776;9.124;2023-09-07T07:40:54;6.65;;;3.67;;
55913;SDS011;58179;48.776;9.124;2023-09-07T07:43:21;6.23;;;3.93;;
55913;SDS011;58179;48.776;9.124;2023-09-07T07:45:47;7.00;;;4.15;;
55913;SDS011;58179;48.776;9.124;2023-09-07T07:48:13;5.70;;;4.15;;
55913;SDS011;58179;48.776;9.124;2023-09-07T07:50:41;5.37;;;4.13;;
55913;SDS011;58179;48.776;9.124;2023-09-07T07:53:08;5.45;;;3.88;;
55913;SDS011;58179;48.776;9.124;2023-09-07T07:55:34;5.72;;;3.97;;
55913;SDS011;58179;48.776;9.124;2023-09-07T07:58:05;5.80;;;4.70;;
55913;SDS011;58179;48.776;9.124;2023-09-07T08:00:33;5.53;;;4.35;;
55913;SDS011;58179;48.776;9.124;2023-09-07T08:03:00;8.43;;;4.28;;
55913;SDS011;58179;48.776;9.124;2023-09-07T08:05:31;5.47;;;4.20;;
55913;SDS011;58179;48.776;9.124;2023-09-07T08:07:58;4.97;;;3.92;;
55913;SDS011;58179;48.776;9.124;2023-09-07T08:10:24;5.07;;;3.75;;
55913;SDS011;58179;48.776;9.124;2023-09-07T08:12:52;4.43;;;3.47;;
55913;SDS011;58179;48.776;9.124;2023-09-07T08:15:21;3.85;;;3.25;;
55913;SDS011;58179;48.776;9.124;2023-09-07T08:17:49;4.20;;;3.72;;
55913;SDS011;58179;48.776;9.124;2023-09-07T08:20:16;6.32;;;4.70;;
55913;SDS011;58179;48.776;9.124;2023-09-07T08:22:42;7.03;;;4.13;;
55913;SDS011;58179;48.776;9.124;2023-09-07T08:25:10;5.15;;;4.10;;
55913;SDS011;58179;48.776;9.124;2023-09-07T08:27:40;5.97;;;4.72;;
55913;SDS011;58179;48.776;9.124;2023-09-07T08:30:12;5.28;;;3.90;;
55913;SDS011;58179;48.776;9.124;2023-09-07T08:32:42;4.88;;;3.78;;
55913;SDS011;58179;48.776;9.124;2023-09-07T08:35:09;4.60;;;3.67;;
55913;SDS011;58179;48.776;9.124;2023-09-07T08:37:38;4.28;;;3.65;;
55913;SDS011;58179;48.776;9.124;2023-09-07T08:40:05;5.97;;;3.83;;
55913;SDS011;58179;48.776;9.124;2023-09-07T08:42:32;8.27;;;5.00;;
55913;SDS011;58179;48.776;9.124;2023-09-07T08:45:02;5.28;;;4.15;;
55913;SDS011;58179;48.776;9.124;2023-09-07T08:47:31;5.38;;;4.60;;
55913;SDS011;58179;48.776;9.124;2023-09-07T08:50:02;5.07;;;3.88;;
55913;SDS011;58179;48.776;9.124;2023-09-07T08:52:33;5.85;;;4.30;;
55913;SDS011;58179;48.776;9.124;2023-09-07T08:55:00;4.28;;;3.58;;
55913;SDS011;58179;48.776;9.124;2023-09-07T08:57:29;4.78;;;4.10;;
55913;SDS011;58179;48.776;9.124;2023-09-07T08:59:57;6.65;;;4.10;;
55913;SDS011;58179;48.776;9.124;2023-09-07T09:02:23;5.93;;;3.72;;
55913;SDS011;58179;48.776;9.124;2023-09-07T09:04:49;3.92;;;3.40;;
55913;SDS011;58179;48.776;9.124;2023-09-07T09:07:19;4.88;;;3.90;;
55913;SDS011;58179;48.776;9.124;2023-09-07T09:09:46;4.97;;;3.50;;
55913;SDS011;58179;48.776;9.124;2023-09-07T09:12:12;3.83;;;3.30;;
55913;SDS011;58179;48.776;9.124;2023-09-07T09:14:39;4.07;;;3.53;;
55913;SDS011;58179;48.776;9.124;2023-09-07T09:17:10;4.97;;;3.95;;
55913;SDS011;58179;48.776;9.124;2023-09-07T09:19:38;8.70;;;5.30;;
55913;SDS011;58179;48.776;9.124;2023-09-07T09:22:04;4.63;;;3.78;;
55913;SDS011;58179;48.776;9.124;2023-09-07T09:24:33;5.00;;;4.20;;
55913;SDS011;58179;48.776;9.124;2023-09-07T09:27:00;4.90;;;3.50;;
55913;SDS011;58179;48.776;9.124;2023-09-07T09:29:26;4.47;;;3.70;;
55913;SDS011;58179;48.776;9.124;2023-09-07T09:31:52;4.80;;;3.60;;
55913;SDS011;58179;48.776;9.124;2023-09-07T09:34:22;4.68;;;3.83;;
55913;SDS011;58179;48.776;9.124;2023-09-07T09:36:48;4.10;;;3.42;;
55913;SDS011;58179;48.776;9.124;2023-09-07T09:39:21;3.97;;;3.53;;
55913;SDS011;58179;48.776;9.124;2023-09-07T09:41:50;4.55;;;3.53;;
55913;SDS011;58179;48.776;9.124;2023-09-07T09:44:17;5.97;;;3.60;;
55913;SDS011;58179;48.776;9.124;2023-09-07T09:46:50;4.00;;;2.90;;
55913;SDS011;58179;48.776;9.124;2023-09-07T09:49:19;3.90;;;3.25;;
55913;SDS011;58179;48.776;9.124;2023-09-07T09:51:48;5.40;;;3.70;;
55913;SDS011;58179;48.776;9.124;2023-09-07T09:54:17;4.13;;;3.20;;
55913;SDS011;58179;48.776;9.124;2023-09-07T09:56:43;3.65;;;3.28;;
55913;SDS011;58179;48.776;9.124;2023-09-07T09:59:11;3.67;;;3.20;;
55913;SDS011;58179;48.776;9.124;2023-09-07T10:01:40;5.10;;;3.33;;
55913;SDS011;58179;48.776;9.124;2023-09-07T10:04:09;5.00;;;3.72;;
55913;SDS011;58179;48.776;9.124;2023-09-07T10:06:38;7.20;;;4.97;;
55913;SDS011;58179;48.776;9.124;2023-09-07T10:09:04;7.67;;;5.23;;
55913;SDS011;58179;48.776;9.124;2023-09-07T10:11:32;4.65;;;3.75;;
55913;SDS011;58179;48.776;9.124;2023-09-07T10:14:00;6.65;;;3.85;;
55913;SDS011;58179;48.776;9.124;2023-09-07T10:16:29;4.25;;;3.60;;
55913;SDS011;58179;48.776;9.124;2023-09-07T10:19:13;5.10;;;3.58;;
55913;SDS011;58179;48.776;9.124;2023-09-07T10:21:41;5.75;;;3.65;;
55913;SDS011;58179;48.776;9.124;2023-09-07T10:24:07;5.22;;;3.70;;
55913;SDS011;58179;48.776;9.124;2023-09-07T10:26:34;5.77;;;3.47;;
55913;SDS011;58179;48.776;9.124;2023-09-07T10:29:00;4.47;;;3.70;;
55913;SDS011;58179;48.776;9.124;2023-09-07T10:31:30;3.92;;;3.38;;
55913;SDS011;58179;48.776;9.124;2023-09-07T10:33:56;5.03;;;3.93;;
55913;SDS011;58179;48.776;9.124;2023-09-07T10:36:33;8.20;;;4.70;;
55913;SDS011;58179;48.776;9.124;2023-09-07T10:39:00;5.80;;;4.30;;
55913;SDS011;58179;48.776;9.124;2023-09-07T10:41:27;4.75;;;3.33;;
55913;SDS011;58179;48.776;9.124;2023-09-07T10:43:53;4.95;;;3.60;;
55913;SDS011;58179;48.776;9.124;2023-09-07T10:46:20;4.35;;;3.65;;
55913;SDS011;58179;48.776;9.124;2023-09-07T10:48:49;5.63;;;4.00;;
55913;SDS011;58179;48.776;9.124;2023-09-07T10:51:16;4.95;;;3.95;;
55913;SDS011;58179;48.776;9.124;2023-09-07T10:53:43;5.20;;;3.65;;
55913;SDS011;58179;48.776;9.124;2023-09-07T10:56:09;4.93;;;3.73;;
55913;SDS011;58179;48.776;9.124;2023-09-07T10:58:36;6.32;;;4.40;;
55913;SDS011;58179;48.776;9.124;2023-09-07T11:01:09;5.50;;;3.72;;
55913;SDS011;58179;48.776;9.124;2023-09-07T11:03:36;4.25;;;3.70;;
55913;SDS011;58179;48.776;9.124;2023-09-07T11:06:05;4.68;;;3.58;;
55913;SDS011;58179;48.776;9.124;2023-09-07T11:08:34;5.43;;;4.03;;
55913;SDS011;58179;48.776;9.124;2023-09-07T11:11:00;7.65;;;4.35;;
55913;SDS011;58179;48.776;9.124;2023-09-07T11:13:28;4.65;;;4.03;;
55913;SDS011;58179;48.776;9.124;2023-09-07T11:15:54;4.60;;;4.00;;
55913;SDS011;58179;48.776;9.124;2023-09-07T11:18:21;4.72;;;3.45;;
55913;SDS011;58179;48.776;9.124;2023-09-07T11:20:48;6.20;;;4.60;;
55913;SDS011;58179;48.776;9.124;2023-09-07T11:23:16;6.72;;;4.30;;
55913;SDS011;58179;48.776;9.124;2023-09-07T11:25:43;5.57;;;4.22;;
55913;SDS011;58179;48.776;9.124;2023-09-07T11:28:11;5.18;;;4.47;;
55913;SDS011;58179;48.776;9.124;2023-09-07T11:30:37;6.28;;;4.22;;
55913;SDS011;58179;48.776;9.124;2023-09-07T11:33:15;4.72;;;3.80;;
55913;SDS011;58179;48.776;9.124;2023-09-07T11:35:43;6.50;;;4.17;;
55913;SDS011;58179;48.776;9.124;2023-09-07T11:38:12;4.43;;;3.57;;
55913;SDS011;58179;48.776;9.124;2023-09-07T11:40:41;5.20;;;3.78;;
55913;SDS011;58179;48.776;9.124;2023-09-07T11:43:09;4.80;;;3.50;;
55913;SDS011;58179;48.776;9.124;2023-09-07T11:45:35;5.53;;;3.80;;
55913;SDS011;58179;48.776;9.124;2023-09-07T11:48:02;3.72;;;3.25;;
55913;SDS011;58179;48.776;9.124;2023-09-07T11:50:28;5.80;;;3.63;;
55913;SDS011;58179;48.776;9.124;2023-09-07T11:52:55;4.80;;;3.63;;
55913;SDS011;58179;48.776;9.124;2023-09-07T11:55:21;4.13;;;3.45;;
55913;SDS011;58179;48.776;9.124;2023-09-07T11:57:49;5.80;;;3.93;;
55913;SDS011;58179;48.776;9.124;2023-09-07T12:00:17;5.35;;;3.08;;
55913;SDS011;58179;48.776;9.124;2023-09-07T12:02:44;8.80;;;4.65;;
55913;SDS011;58179;48.776;9.124;2023-09-07T12:05:10;5.00;;;3.90;;
55913;SDS011;58179;48.776;9.124;2023-09-07T12:07:39;4.00;;;3.25;;
55913;SDS011;58179;48.776;9.124;2023-09-07T12:10:06;4.60;;;3.53;;
55913;SDS011;58179;48.776;9.124;2023-09-07T12:12:36;3.55;;;2.97;;
55913;SDS011;58179;48.776;9.124;2023-09-07T12:15:04;4.55;;;3.25;;
55913;SDS011;58179;48.776;9.124;2023-09-07T12:17:30;3.47;;;2.88;;
55913;SDS011;58179;48.776;9.124;2023-09-07T12:19:57;4.40;;;3.00;;
55913;SDS011;58179;48.776;9.124;2023-09-07T12:22:24;3.33;;;2.85;;
55913;SDS011;58179;48.776;9.124;2023-09-07T12:24:50;3.63;;;3.30;;
55913;SDS011;58179;48.776;9.124;2023-09-07T12:27:16;3.90;;;3.28;;
55913;SDS011;58179;48.776;9.124;2023-09-07T12:29:43;3.43;;;2.97;;
55913;SDS011;58179;48.776;9.124;2023-09-07T12:32:11;3.30;;;2.80;;
55913;SDS011;58179;48.776;9.124;2023-09-07T12:34:37;3.50;;;2.93;;
55913;SDS011;58179;48.776;9.124;2023-09-07T12:37:04;4.68;;;3.33;;
55913;SDS011;58179;48.776;9.124;2023-09-07T12:39:31;3.92;;;3.25;;
55913;SDS011;58179;48.776;9.124;2023-09-07T12:41:57;5.63;;;3.90;;
55913;SDS011;58179;48.776;9.124;2023-09-07T12:44:24;3.60;;;3.20;;
55913;SDS011;58179;48.776;9.124;2023-09-07T12:46:50;5.75;;;3.45;;
55913;SDS011;58179;48.776;9.124;2023-09-07T12:49:18;3.90;;;3.30;;
55913;SDS011;58179;48.776;9.124;2023-09-07T12:51:44;3.53;;;2.73;;
55913;SDS011;58179;48.776;9.124;2023-09-07T12:54:12;6.05;;;3.35;;
55913;SDS011;58179;48.776;9.124;2023-09-07T12:56:38;5.75;;;3.58;;
55913;SDS011;58179;48.776;9.124;2023-09-07T12:59:04;3.90;;;3.33;;
55913;SDS011;58179;48.776;9.124;2023-09-07T13:01:31;3.50;;;3.00;;
55913;SDS011;58179;48.776;9.124;2023-09-07T13:03:58;3.85;;;3.33;;
55913;SDS011;58179;48.776;9.124;2023-09-07T13:06:25;5.55;;;3.55;;
55913;SDS011;58179;48.776;9.124;2023-09-07T13:08:51;4.15;;;3.20;;
55913;SDS011;58179;48.776;9.124;2023-09-07T13:11:18;4.20;;;3.10;;
55913;SDS011;58179;48.776;9.124;2023-09-07T13:13:44;4.38;;;3.00;;
55913;SDS011;58179;48.776;9.124;2023-09-07T13:16:10;6.10;;;2.70;;
55913;SDS011;58179;48.776;9.124;2023-09-07T13:18:37;4.47;;;3.00;;
55913;SDS011;58179;48.776;9.124;2023-09-07T13:21:03;3.20;;;2.90;;
55913;SDS011;58179;48.776;9.124;2023-09-07T13:23:31;3.63;;;2.60;;
55913;SDS011;58179;48.776;9.124;2023-09-07T13:25:57;3.27;;;2.70;;
55913;SDS011;58179;48.776;9.124;2023-09-07T13:28:25;3.10;;;2.63;;
55913;SDS011;58179;48.776;9.124;2023-09-07T13:30:51;7.43;;;2.78;;
55913;SDS011;58179;48.776;9.124;2023-09-07T13:33:19;5.10;;;2.90;;
55913;SDS011;58179;48.776;9.124;2023-09-07T13:35:45;3.22;;;2.53;;
55913;SDS011;58179;48.776;9.124;2023-09-07T13:38:12;2.72;;;2.50;;
55913;SDS011;58179;48.776;9.124;2023-09-07T13:40:39;3.72;;;2.30;;
55913;SDS011;58179;48.776;9.124;2023-09-07T13:43:06;2.90;;;2.30;;
55913;SDS011;58179;48.776;9.124;2023-09-07T13:45:32;2.75;;;2.35;;
55913;SDS011;58179;48.776;9.124;2023-09-07T13:47:59;3.20;;;2.40;;
55913;SDS011;58179;48.776;9.124;2023-09-07T13:50:27;3.15;;;2.70;;
55913;SDS011;58179;48.776;9.124;2023-09-07T13:52:54;3.03;;;2.50;;
55913;SDS011;58179;48.776;9.124;2023-09-07T13:55:20;3.30;;;2.30;;
55913;SDS011;58179;48.776;9.124;2023-09-07T13:57:48;3.28;;;2.67;;
55913;SDS011;58179;48.776;9.124;2023-09-07T14:00:14;2.85;;;2.40;;
55913;SDS011;58179;48.776;9.124;2023-09-07T14:02:41;2.97;;;2.40;;
55913;SDS011;58179;48.776;9.124;2023-09-07T14:05:08;4.47;;;2.70;;
55913;SDS011;58179;48.776;9.124;2023-09-07T14:07:34;3.10;;;2.65;;
55913;SDS011;58179;48.776;9.124;2023-09-07T14:10:00;3.20;;;2.58;;
55913;SDS011;58179;48.776;9.124;2023-09-07T14:12:26;2.90;;;2.60;;
55913;SDS011;58179;48.776;9.124;2023-09-07T14:14:54;3.90;;;2.30;;
55913;SDS011;58179;48.776;9.124;2023-09-07T14:17:20;3.35;;;2.13;;
55913;SDS011;58179;48.776;9.124;2023-09-07T14:19:46;2.63;;;2.30;;
55913;SDS011;58179;48.776;9.124;2023-09-07T14:22:12;3.50;;;2.83;;
55913;SDS011;58179;48.776;9.124;2023-09-07T14:24:39;2.67;;;2.35;;
55913;SDS011;58179;48.776;9.124;2023-09-07T14:27:05;3.22;;;2.42;;
55913;SDS011;58179;48.776;9.124;2023-09-07T14:29:31;4.53;;;2.70;;
55913;SDS011;58179;48.776;9.124;2023-09-07T14:31:59;4.53;;;2.80;;
55913;SDS011;58179;48.776;9.124;2023-09-07T14:34:26;2.58;;;2.35;;
55913;SDS011;58179;48.776;9.124;2023-09-07T14:36:52;3.70;;;2.60;;
55913;SDS011;58179;48.776;9.124;2023-09-07T14:39:20;3.07;;;2.30;;
55913;SDS011;58179;48.776;9.124;2023-09-07T14:41:49;2.70;;;2.10;;
55913;SDS011;58179;48.776;9.124;2023-09-07T14:44:15;3.50;;;2.42;;
55913;SDS011;58179;48.776;9.124;2023-09-07T14:46:41;3.17;;;2.50;;